sensor_id;sensor_type;location;lat;lon;timestamp;P1;durP1;ratioP1;P2;durP2;ratioP2
8050;SDS011;4068;42.158;24.732;2023-02-07T00:01:48;12.00;;;7.17;;
8050;SDS011;4068;42.158;24.732;2023-02-07T00:04:13;23.37;;;8.10;;
8050;SDS011;4068;42.158;24.732;2023-02-07T00:06:39;12.47;;;7.20;;
8050;SDS011;4068;42.158;24.732;2023-02-07T00:09:05;20.77;;;8.40;;
8050;SDS011;4068;42.158;24.732;2023-02-07T00:11:32;22.23;;;8.73;;
8050;SDS011;4068;42.158;24.732;2023-02-07T00:13:58;19.07;;;8.60;;
8050;SDS011;4068;42.158;24.732;2023-02-07T00:16:24;10.93;;;6.83;;
8050;SDS011;4068;42.158;24.732;2023-02-07T00:18:50;11.10;;;6.93;;
8050;SDS011;4068;42.158;24.732;2023-02-07T00:21:17;13.70;;;7.27;;
8050;SDS011;4068;42.158;24.732;2023-02-07T00:23:44;14.40;;;7.20;;
8050;SDS011;4068;42.158;24.732;2023-02-07T00:26:11;13.10;;;7.17;;
8050;SDS011;4068;42.158;24.732;2023-02-07T00:28:37;16.40;;;8.60;;
8050;SDS011;4068;42.158;24.732;2023-02-07T00:31:07;14.57;;;8.63;;
8050;SDS011;4068;42.158;24.732;2023-02-07T00:33:35;17.83;;;8.37;;
8050;SDS011;4068;42.158;24.732;2023-02-07T00:36:02;16.43;;;7.77;;
8050;SDS011;4068;42.158;24.732;2023-02-07T00:38:30;19.57;;;7.77;;
8050;SDS011;4068;42.158;24.732;2023-02-07T00:40:55;16.23;;;7.63;;
8050;SDS011;4068;42.158;24.732;2023-02-07T00:43:21;15.00;;;8.03;;
8050;SDS011;4068;42.158;24.732;2023-02-07T00:45:47;16.97;;;7.57;;
8050;SDS011;4068;42.158;24.732;2023-02-07T00:48:12;18.33;;;9.00;;
8050;SDS011;4068;42.158;24.732;2023-02-07T00:50:38;15.60;;;8.53;;
8050;SDS011;4068;42.158;24.732;2023-02-07T00:53:04;15.27;;;8.10;;
8050;SDS011;4068;42.158;24.732;2023-02-07T00:55:29;14.37;;;7.80;;
8050;SDS011;4068;42.158;24.732;2023-02-07T00:57:55;17.23;;;8.67;;
8050;SDS011;4068;42.158;24.732;2023-02-07T01:00:20;26.80;;;8.37;;
8050;SDS011;4068;42.158;24.732;2023-02-07T01:02:46;12.00;;;7.23;;
8050;SDS011;4068;42.158;24.732;2023-02-07T01:05:11;15.83;;;8.00;;
8050;SDS011;4068;42.158;24.732;2023-02-07T01:07:37;14.67;;;7.87;;
8050;SDS011;4068;42.158;24.732;2023-02-07T01:10:02;14.17;;;7.97;;
8050;SDS011;4068;42.158;24.732;2023-02-07T01:12:28;16.30;;;7.67;;
8050;SDS011;4068;42.158;24.732;2023-02-07T01:14:53;19.40;;;7.77;;
8050;SDS011;4068;42.158;24.732;2023-02-07T01:17:19;12.23;;;7.67;;
8050;SDS011;4068;42.158;24.732;2023-02-07T01:19:44;19.50;;;8.00;;
8050;SDS011;4068;42.158;24.732;2023-02-07T01:22:10;15.73;;;8.53;;
8050;SDS011;4068;42.158;24.732;2023-02-07T01:24:35;13.93;;;8.87;;
8050;SDS011;4068;42.158;24.732;2023-02-07T01:27:01;15.27;;;8.67;;
8050;SDS011;4068;42.158;24.732;2023-02-07T01:29:28;18.33;;;9.47;;
8050;SDS011;4068;42.158;24.732;2023-02-07T01:31:53;16.73;;;8.50;;
8050;SDS011;4068;42.158;24.732;2023-02-07T01:34:18;17.97;;;9.20;;
8050;SDS011;4068;42.158;24.732;2023-02-07T01:36:44;18.27;;;9.43;;
8050;SDS011;4068;42.158;24.732;2023-02-07T01:39:09;18.57;;;9.27;;
8050;SDS011;4068;42.158;24.732;2023-02-07T01:41:35;17.07;;;9.27;;
8050;SDS011;4068;42.158;24.732;2023-02-07T01:44:04;21.03;;;9.00;;
8050;SDS011;4068;42.158;24.732;2023-02-07T01:46:32;16.37;;;8.60;;
8050;SDS011;4068;42.158;24.732;2023-02-07T01:49:00;22.73;;;9.37;;
8050;SDS011;4068;42.158;24.732;2023-02-07T01:51:29;17.37;;;9.17;;
8050;SDS011;4068;42.158;24.732;2023-02-07T01:53:57;21.07;;;9.17;;
8050;SDS011;4068;42.158;24.732;2023-02-07T01:56:25;18.07;;;8.90;;
8050;SDS011;4068;42.158;24.732;2023-02-07T01:58:52;18.87;;;9.47;;
8050;SDS011;4068;42.158;24.732;2023-02-07T02:01:21;24.53;;;8.87;;
8050;SDS011;4068;42.158;24.732;2023-02-07T02:03:49;18.27;;;9.37;;
8050;SDS011;4068;42.158;24.732;2023-02-07T02:06:17;19.17;;;9.47;;
8050;SDS011;4068;42.158;24.732;2023-02-07T02:08:44;19.33;;;8.17;;
8050;SDS011;4068;42.158;24.732;2023-02-07T02:16:44;12.87;;;7.13;;
8050;SDS011;4068;42.158;24.732;2023-02-07T02:21:57;11.77;;;6.87;;
8050;SDS011;4068;42.158;24.732;2023-02-07T02:36:00;12.30;;;6.07;;
8050;SDS011;4068;42.158;24.732;2023-02-07T02:38:51;10.27;;;6.33;;
8050;SDS011;4068;42.158;24.732;2023-02-07T02:41:27;13.27;;;7.20;;
8050;SDS011;4068;42.158;24.732;2023-02-07T02:46:57;23.40;;;9.60;;
8050;SDS011;4068;42.158;24.732;2023-02-07T02:49:25;16.93;;;8.30;;
8050;SDS011;4068;42.158;24.732;2023-02-07T02:51:50;19.07;;;8.50;;
8050;SDS011;4068;42.158;24.732;2023-02-07T02:54:30;21.47;;;8.37;;
8050;SDS011;4068;42.158;24.732;2023-02-07T03:02:54;47.43;;;8.43;;
8050;SDS011;4068;42.158;24.732;2023-02-07T03:11:01;20.73;;;8.73;;
8050;SDS011;4068;42.158;24.732;2023-02-07T03:13:40;16.73;;;8.20;;
8050;SDS011;4068;42.158;24.732;2023-02-07T03:16:30;15.57;;;6.97;;
8050;SDS011;4068;42.158;24.732;2023-02-07T03:19:14;10.83;;;7.03;;
8050;SDS011;4068;42.158;24.732;2023-02-07T03:21:54;13.47;;;7.40;;
8050;SDS011;4068;42.158;24.732;2023-02-07T03:24:33;11.83;;;6.83;;
8050;SDS011;4068;42.158;24.732;2023-02-07T03:27:00;12.07;;;6.20;;
8050;SDS011;4068;42.158;24.732;2023-02-07T03:29:29;13.40;;;6.93;;
8050;SDS011;4068;42.158;24.732;2023-02-07T03:31:57;15.27;;;6.40;;
8050;SDS011;4068;42.158;24.732;2023-02-07T03:34:28;15.57;;;7.20;;
8050;SDS011;4068;42.158;24.732;2023-02-07T03:39:39;12.87;;;6.77;;
8050;SDS011;4068;42.158;24.732;2023-02-07T03:42:26;17.87;;;7.50;;
8050;SDS011;4068;42.158;24.732;2023-02-07T03:44:53;13.13;;;7.40;;
8050;SDS011;4068;42.158;24.732;2023-02-07T03:47:20;25.53;;;8.53;;
8050;SDS011;4068;42.158;24.732;2023-02-07T03:49:45;15.27;;;7.63;;
8050;SDS011;4068;42.158;24.732;2023-02-07T03:52:11;11.57;;;7.30;;
8050;SDS011;4068;42.158;24.732;2023-02-07T03:54:36;10.17;;;6.27;;
8050;SDS011;4068;42.158;24.732;2023-02-07T03:57:02;12.90;;;6.67;;
8050;SDS011;4068;42.158;24.732;2023-02-07T03:59:27;11.17;;;6.80;;
8050;SDS011;4068;42.158;24.732;2023-02-07T04:01:53;11.33;;;6.40;;
8050;SDS011;4068;42.158;24.732;2023-02-07T04:04:18;14.00;;;7.57;;
8050;SDS011;4068;42.158;24.732;2023-02-07T04:06:44;13.30;;;6.83;;
8050;SDS011;4068;42.158;24.732;2023-02-07T04:09:09;14.50;;;6.43;;
8050;SDS011;4068;42.158;24.732;2023-02-07T04:11:35;18.70;;;7.07;;
8050;SDS011;4068;42.158;24.732;2023-02-07T04:14:00;14.47;;;6.87;;
8050;SDS011;4068;42.158;24.732;2023-02-07T04:16:26;10.03;;;6.07;;
8050;SDS011;4068;42.158;24.732;2023-02-07T04:18:51;12.07;;;6.57;;
8050;SDS011;4068;42.158;24.732;2023-02-07T04:21:17;13.93;;;6.43;;
8050;SDS011;4068;42.158;24.732;2023-02-07T04:23:42;18.80;;;6.77;;
8050;SDS011;4068;42.158;24.732;2023-02-07T04:26:07;10.30;;;5.90;;
8050;SDS011;4068;42.158;24.732;2023-02-07T04:28:33;17.20;;;7.03;;
8050;SDS011;4068;42.158;24.732;2023-02-07T04:30:58;18.53;;;6.40;;
8050;SDS011;4068;42.158;24.732;2023-02-07T04:33:24;14.53;;;6.63;;
8050;SDS011;4068;42.158;24.732;2023-02-07T04:35:53;9.73;;;5.70;;
8050;SDS011;4068;42.158;24.732;2023-02-07T04:38:20;9.30;;;6.17;;
8050;SDS011;4068;42.158;24.732;2023-02-07T04:40:46;12.03;;;5.97;;
8050;SDS011;4068;42.158;24.732;2023-02-07T04:43:11;11.30;;;6.13;;
8050;SDS011;4068;42.158;24.732;2023-02-07T04:45:36;10.60;;;6.10;;
8050;SDS011;4068;42.158;24.732;2023-02-07T04:48:03;12.97;;;7.70;;
8050;SDS011;4068;42.158;24.732;2023-02-07T04:50:29;18.67;;;8.80;;
8050;SDS011;4068;42.158;24.732;2023-02-07T04:52:54;17.47;;;8.23;;
8050;SDS011;4068;42.158;24.732;2023-02-07T04:55:20;17.73;;;9.33;;
8050;SDS011;4068;42.158;24.732;2023-02-07T04:57:46;15.10;;;8.17;;
8050;SDS011;4068;42.158;24.732;2023-02-07T05:00:12;14.40;;;8.00;;
8050;SDS011;4068;42.158;24.732;2023-02-07T05:02:38;15.00;;;6.67;;
8050;SDS011;4068;42.158;24.732;2023-02-07T05:05:03;9.87;;;7.00;;
8050;SDS011;4068;42.158;24.732;2023-02-07T05:07:29;8.90;;;5.87;;
8050;SDS011;4068;42.158;24.732;2023-02-07T05:09:54;11.13;;;6.03;;
8050;SDS011;4068;42.158;24.732;2023-02-07T05:12:20;12.07;;;6.20;;
8050;SDS011;4068;42.158;24.732;2023-02-07T05:14:45;12.57;;;7.30;;
8050;SDS011;4068;42.158;24.732;2023-02-07T05:17:11;12.63;;;6.80;;
8050;SDS011;4068;42.158;24.732;2023-02-07T05:19:36;12.73;;;6.90;;
8050;SDS011;4068;42.158;24.732;2023-02-07T05:22:02;12.13;;;6.43;;
8050;SDS011;4068;42.158;24.732;2023-02-07T05:24:27;22.73;;;8.40;;
8050;SDS011;4068;42.158;24.732;2023-02-07T05:26:52;19.07;;;7.37;;
8050;SDS011;4068;42.158;24.732;2023-02-07T05:29:18;16.47;;;7.93;;
8050;SDS011;4068;42.158;24.732;2023-02-07T05:31:43;16.10;;;7.10;;
8050;SDS011;4068;42.158;24.732;2023-02-07T05:34:27;19.63;;;8.27;;
8050;SDS011;4068;42.158;24.732;2023-02-07T05:36:53;17.83;;;8.73;;
8050;SDS011;4068;42.158;24.732;2023-02-07T05:39:19;18.93;;;8.60;;
8050;SDS011;4068;42.158;24.732;2023-02-07T05:41:45;18.43;;;9.70;;
8050;SDS011;4068;42.158;24.732;2023-02-07T05:44:10;17.43;;;8.10;;
8050;SDS011;4068;42.158;24.732;2023-02-07T05:46:35;19.03;;;10.00;;
8050;SDS011;4068;42.158;24.732;2023-02-07T05:49:01;13.03;;;8.37;;
8050;SDS011;4068;42.158;24.732;2023-02-07T05:51:27;21.70;;;8.60;;
8050;SDS011;4068;42.158;24.732;2023-02-07T05:53:52;25.60;;;9.60;;
8050;SDS011;4068;42.158;24.732;2023-02-07T05:56:18;17.93;;;8.17;;
8050;SDS011;4068;42.158;24.732;2023-02-07T05:58:43;15.33;;;7.93;;
8050;SDS011;4068;42.158;24.732;2023-02-07T06:01:09;21.50;;;9.70;;
8050;SDS011;4068;42.158;24.732;2023-02-07T06:03:34;25.23;;;12.63;;
8050;SDS011;4068;42.158;24.732;2023-02-07T06:05:59;26.43;;;9.83;;
8050;SDS011;4068;42.158;24.732;2023-02-07T06:08:25;15.37;;;7.60;;
8050;SDS011;4068;42.158;24.732;2023-02-07T06:10:50;13.63;;;7.47;;
8050;SDS011;4068;42.158;24.732;2023-02-07T06:13:16;13.87;;;8.00;;
8050;SDS011;4068;42.158;24.732;2023-02-07T06:15:41;18.63;;;7.27;;
8050;SDS011;4068;42.158;24.732;2023-02-07T06:18:07;12.90;;;6.50;;
8050;SDS011;4068;42.158;24.732;2023-02-07T06:20:32;13.87;;;7.93;;
8050;SDS011;4068;42.158;24.732;2023-02-07T06:22:58;14.83;;;7.47;;
8050;SDS011;4068;42.158;24.732;2023-02-07T06:25:23;13.13;;;6.93;;
8050;SDS011;4068;42.158;24.732;2023-02-07T06:27:48;17.33;;;8.03;;
8050;SDS011;4068;42.158;24.732;2023-02-07T06:30:14;13.67;;;7.83;;
8050;SDS011;4068;42.158;24.732;2023-02-07T06:32:39;21.33;;;8.10;;
8050;SDS011;4068;42.158;24.732;2023-02-07T06:35:05;22.60;;;8.80;;
8050;SDS011;4068;42.158;24.732;2023-02-07T06:37:31;18.80;;;8.10;;
8050;SDS011;4068;42.158;24.732;2023-02-07T06:39:56;14.60;;;8.77;;
8050;SDS011;4068;42.158;24.732;2023-02-07T06:42:22;15.00;;;7.77;;
8050;SDS011;4068;42.158;24.732;2023-02-07T06:44:47;13.50;;;7.40;;
8050;SDS011;4068;42.158;24.732;2023-02-07T06:47:13;24.47;;;9.27;;
8050;SDS011;4068;42.158;24.732;2023-02-07T06:49:40;27.47;;;8.33;;
8050;SDS011;4068;42.158;24.732;2023-02-07T06:52:05;17.27;;;8.10;;
8050;SDS011;4068;42.158;24.732;2023-02-07T06:54:31;14.07;;;7.60;;
8050;SDS011;4068;42.158;24.732;2023-02-07T06:56:57;20.17;;;7.73;;
8050;SDS011;4068;42.158;24.732;2023-02-07T06:59:22;17.50;;;8.27;;
8050;SDS011;4068;42.158;24.732;2023-02-07T07:01:47;14.33;;;7.73;;
8050;SDS011;4068;42.158;24.732;2023-02-07T07:04:13;12.57;;;8.43;;
8050;SDS011;4068;42.158;24.732;2023-02-07T07:06:38;14.77;;;7.33;;
8050;SDS011;4068;42.158;24.732;2023-02-07T07:09:04;14.57;;;7.17;;
8050;SDS011;4068;42.158;24.732;2023-02-07T07:11:29;12.53;;;7.03;;
8050;SDS011;4068;42.158;24.732;2023-02-07T07:13:55;12.03;;;6.67;;
8050;SDS011;4068;42.158;24.732;2023-02-07T07:16:20;16.37;;;6.57;;
8050;SDS011;4068;42.158;24.732;2023-02-07T07:18:46;12.30;;;7.07;;
8050;SDS011;4068;42.158;24.732;2023-02-07T07:21:11;30.77;;;10.43;;
8050;SDS011;4068;42.158;24.732;2023-02-07T07:23:37;11.97;;;6.97;;
8050;SDS011;4068;42.158;24.732;2023-02-07T07:26:03;26.03;;;11.80;;
8050;SDS011;4068;42.158;24.732;2023-02-07T07:28:28;12.57;;;7.90;;
8050;SDS011;4068;42.158;24.732;2023-02-07T07:31:00;12.87;;;7.17;;
8050;SDS011;4068;42.158;24.732;2023-02-07T07:33:26;14.13;;;6.77;;
8050;SDS011;4068;42.158;24.732;2023-02-07T07:35:58;12.03;;;6.70;;
8050;SDS011;4068;42.158;24.732;2023-02-07T07:38:24;14.87;;;7.10;;
8050;SDS011;4068;42.158;24.732;2023-02-07T07:40:50;9.30;;;6.63;;
8050;SDS011;4068;42.158;24.732;2023-02-07T07:43:15;12.17;;;6.23;;
8050;SDS011;4068;42.158;24.732;2023-02-07T07:45:41;9.80;;;7.00;;
8050;SDS011;4068;42.158;24.732;2023-02-07T07:48:06;9.33;;;5.57;;
8050;SDS011;4068;42.158;24.732;2023-02-07T07:50:32;9.23;;;5.83;;
8050;SDS011;4068;42.158;24.732;2023-02-07T07:52:57;11.07;;;5.97;;
8050;SDS011;4068;42.158;24.732;2023-02-07T07:55:22;10.07;;;6.27;;
8050;SDS011;4068;42.158;24.732;2023-02-07T07:57:48;10.50;;;6.27;;
8050;SDS011;4068;42.158;24.732;2023-02-07T08:00:14;11.37;;;6.87;;
8050;SDS011;4068;42.158;24.732;2023-02-07T08:02:40;10.30;;;6.13;;
8050;SDS011;4068;42.158;24.732;2023-02-07T08:05:06;10.50;;;6.03;;
8050;SDS011;4068;42.158;24.732;2023-02-07T08:07:32;24.67;;;11.77;;
8050;SDS011;4068;42.158;24.732;2023-02-07T08:09:58;15.23;;;7.97;;
8050;SDS011;4068;42.158;24.732;2023-02-07T08:12:23;16.20;;;7.03;;
8050;SDS011;4068;42.158;24.732;2023-02-07T08:14:49;42.10;;;20.40;;
8050;SDS011;4068;42.158;24.732;2023-02-07T08:17:14;11.13;;;6.63;;
8050;SDS011;4068;42.158;24.732;2023-02-07T08:19:39;14.47;;;8.03;;
8050;SDS011;4068;42.158;24.732;2023-02-07T08:22:05;13.57;;;7.13;;
8050;SDS011;4068;42.158;24.732;2023-02-07T08:24:30;14.50;;;6.50;;
8050;SDS011;4068;42.158;24.732;2023-02-07T08:26:58;18.17;;;7.10;;
8050;SDS011;4068;42.158;24.732;2023-02-07T08:29:24;10.50;;;6.53;;
8050;SDS011;4068;42.158;24.732;2023-02-07T08:31:49;20.50;;;7.63;;
8050;SDS011;4068;42.158;24.732;2023-02-07T08:34:15;9.87;;;6.90;;
8050;SDS011;4068;42.158;24.732;2023-02-07T08:36:42;13.30;;;7.03;;
8050;SDS011;4068;42.158;24.732;2023-02-07T08:39:08;10.93;;;7.57;;
8050;SDS011;4068;42.158;24.732;2023-02-07T08:41:33;12.77;;;7.13;;
8050;SDS011;4068;42.158;24.732;2023-02-07T08:43:59;11.67;;;6.60;;
8050;SDS011;4068;42.158;24.732;2023-02-07T08:46:24;13.40;;;5.83;;
8050;SDS011;4068;42.158;24.732;2023-02-07T08:48:50;8.27;;;5.90;;
8050;SDS011;4068;42.158;24.732;2023-02-07T08:51:15;10.87;;;6.67;;
8050;SDS011;4068;42.158;24.732;2023-02-07T08:53:41;10.00;;;6.13;;
8050;SDS011;4068;42.158;24.732;2023-02-07T08:56:06;14.57;;;7.03;;
8050;SDS011;4068;42.158;24.732;2023-02-07T08:58:32;11.67;;;6.77;;
8050;SDS011;4068;42.158;24.732;2023-02-07T09:00:58;11.20;;;6.73;;
8050;SDS011;4068;42.158;24.732;2023-02-07T09:03:23;10.47;;;6.57;;
8050;SDS011;4068;42.158;24.732;2023-02-07T09:05:49;9.97;;;6.60;;
8050;SDS011;4068;42.158;24.732;2023-02-07T09:08:14;11.77;;;7.13;;
8050;SDS011;4068;42.158;24.732;2023-02-07T09:10:40;10.30;;;6.63;;
8050;SDS011;4068;42.158;24.732;2023-02-07T09:13:05;10.27;;;6.60;;
8050;SDS011;4068;42.158;24.732;2023-02-07T09:15:30;10.50;;;6.43;;
8050;SDS011;4068;42.158;24.732;2023-02-07T09:17:56;9.70;;;5.60;;
8050;SDS011;4068;42.158;24.732;2023-02-07T09:20:21;9.27;;;6.00;;
8050;SDS011;4068;42.158;24.732;2023-02-07T09:22:48;9.27;;;6.50;;
8050;SDS011;4068;42.158;24.732;2023-02-07T09:25:32;10.53;;;6.83;;
8050;SDS011;4068;42.158;24.732;2023-02-07T09:27:57;9.90;;;6.23;;
8050;SDS011;4068;42.158;24.732;2023-02-07T09:30:23;7.70;;;5.90;;
8050;SDS011;4068;42.158;24.732;2023-02-07T09:32:48;13.73;;;6.87;;
8050;SDS011;4068;42.158;24.732;2023-02-07T09:35:14;10.60;;;5.80;;
8050;SDS011;4068;42.158;24.732;2023-02-07T09:37:39;8.67;;;5.50;;
8050;SDS011;4068;42.158;24.732;2023-02-07T09:40:05;8.57;;;6.10;;
8050;SDS011;4068;42.158;24.732;2023-02-07T09:42:36;8.13;;;5.40;;
8050;SDS011;4068;42.158;24.732;2023-02-07T09:45:12;8.17;;;5.30;;
8050;SDS011;4068;42.158;24.732;2023-02-07T09:47:44;9.60;;;6.03;;
8050;SDS011;4068;42.158;24.732;2023-02-07T09:50:19;8.77;;;5.53;;
8050;SDS011;4068;42.158;24.732;2023-02-07T09:52:51;10.40;;;5.83;;
8050;SDS011;4068;42.158;24.732;2023-02-07T09:55:31;9.40;;;5.70;;
8050;SDS011;4068;42.158;24.732;2023-02-07T09:58:05;8.40;;;5.80;;
8050;SDS011;4068;42.158;24.732;2023-02-07T10:00:36;7.23;;;5.43;;
8050;SDS011;4068;42.158;24.732;2023-02-07T10:05:43;7.37;;;5.30;;
8050;SDS011;4068;42.158;24.732;2023-02-07T10:08:16;8.90;;;5.80;;
8050;SDS011;4068;42.158;24.732;2023-02-07T10:10:52;6.63;;;5.20;;
8050;SDS011;4068;42.158;24.732;2023-02-07T10:30:36;8.40;;;5.60;;
8050;SDS011;4068;42.158;24.732;2023-02-07T10:33:11;10.37;;;6.10;;
8050;SDS011;4068;42.158;24.732;2023-02-07T10:35:39;10.30;;;4.87;;
8050;SDS011;4068;42.158;24.732;2023-02-07T10:41:13;10.13;;;5.37;;
8050;SDS011;4068;42.158;24.732;2023-02-07T10:43:44;6.03;;;4.50;;
8050;SDS011;4068;42.158;24.732;2023-02-07T10:46:12;13.33;;;6.67;;
8050;SDS011;4068;42.158;24.732;2023-02-07T10:48:40;6.97;;;4.60;;
8050;SDS011;4068;42.158;24.732;2023-02-07T10:53:42;5.73;;;4.60;;
8050;SDS011;4068;42.158;24.732;2023-02-07T10:58:41;5.50;;;4.57;;
8050;SDS011;4068;42.158;24.732;2023-02-07T11:01:08;4.50;;;3.70;;
8050;SDS011;4068;42.158;24.732;2023-02-07T11:03:44;6.97;;;4.40;;
8050;SDS011;4068;42.158;24.732;2023-02-07T11:06:10;5.13;;;4.07;;
8050;SDS011;4068;42.158;24.732;2023-02-07T11:08:38;4.00;;;3.63;;
8050;SDS011;4068;42.158;24.732;2023-02-07T11:13:57;4.33;;;3.80;;
8050;SDS011;4068;42.158;24.732;2023-02-07T11:16:28;6.70;;;3.90;;
8050;SDS011;4068;42.158;24.732;2023-02-07T11:23:48;4.70;;;4.20;;
8050;SDS011;4068;42.158;24.732;2023-02-07T11:26:15;4.83;;;3.97;;
8050;SDS011;4068;42.158;24.732;2023-02-07T11:28:43;6.40;;;4.80;;
8050;SDS011;4068;42.158;24.732;2023-02-07T11:31:09;6.63;;;4.80;;
8050;SDS011;4068;42.158;24.732;2023-02-07T11:33:40;9.17;;;4.83;;
8050;SDS011;4068;42.158;24.732;2023-02-07T11:36:20;5.80;;;4.20;;
8050;SDS011;4068;42.158;24.732;2023-02-07T11:38:55;6.50;;;4.50;;
8050;SDS011;4068;42.158;24.732;2023-02-07T11:41:24;7.60;;;5.67;;
8050;SDS011;4068;42.158;24.732;2023-02-07T11:44:01;8.10;;;4.57;;
8050;SDS011;4068;42.158;24.732;2023-02-07T11:49:16;4.90;;;4.30;;
8050;SDS011;4068;42.158;24.732;2023-02-07T11:51:57;4.27;;;3.80;;
8050;SDS011;4068;42.158;24.732;2023-02-07T11:54:24;6.83;;;4.10;;
8050;SDS011;4068;42.158;24.732;2023-02-07T11:56:51;4.33;;;3.93;;
8050;SDS011;4068;42.158;24.732;2023-02-07T11:59:23;6.03;;;4.57;;
8050;SDS011;4068;42.158;24.732;2023-02-07T12:02:34;4.77;;;4.00;;
8050;SDS011;4068;42.158;24.732;2023-02-07T12:04:51;5.17;;;4.43;;
8050;SDS011;4068;42.158;24.732;2023-02-07T12:10:00;5.07;;;3.90;;
8050;SDS011;4068;42.158;24.732;2023-02-07T12:20:34;7.87;;;5.37;;
8050;SDS011;4068;42.158;24.732;2023-02-07T12:25:47;5.53;;;4.77;;
8050;SDS011;4068;42.158;24.732;2023-02-07T12:28:26;5.43;;;4.77;;
8050;SDS011;4068;42.158;24.732;2023-02-07T12:31:00;5.87;;;4.63;;
8050;SDS011;4068;42.158;24.732;2023-02-07T12:38:44;9.70;;;5.90;;
8050;SDS011;4068;42.158;24.732;2023-02-07T12:41:21;9.53;;;6.17;;
8050;SDS011;4068;42.158;24.732;2023-02-07T12:46:40;7.37;;;4.67;;
8050;SDS011;4068;42.158;24.732;2023-02-07T13:05:59;6.13;;;4.80;;
8050;SDS011;4068;42.158;24.732;2023-02-07T13:19:34;5.57;;;4.60;;
8050;SDS011;4068;42.158;24.732;2023-02-07T13:22:22;6.27;;;4.87;;
8050;SDS011;4068;42.158;24.732;2023-02-07T13:24:56;6.93;;;5.50;;
8050;SDS011;4068;42.158;24.732;2023-02-07T13:27:23;7.37;;;4.70;;
8050;SDS011;4068;42.158;24.732;2023-02-07T13:29:52;9.87;;;5.10;;
8050;SDS011;4068;42.158;24.732;2023-02-07T13:32:25;6.97;;;5.30;;
8050;SDS011;4068;42.158;24.732;2023-02-07T13:34:59;6.37;;;4.97;;
8050;SDS011;4068;42.158;24.732;2023-02-07T13:49:00;11.93;;;6.87;;
8050;SDS011;4068;42.158;24.732;2023-02-07T13:56:35;19.00;;;8.93;;
8050;SDS011;4068;42.158;24.732;2023-02-07T14:02:19;14.70;;;7.83;;
8050;SDS011;4068;42.158;24.732;2023-02-07T14:04:54;9.57;;;5.53;;
8050;SDS011;4068;42.158;24.732;2023-02-07T14:07:26;6.87;;;5.20;;
8050;SDS011;4068;42.158;24.732;2023-02-07T14:09:53;7.33;;;5.50;;
8050;SDS011;4068;42.158;24.732;2023-02-07T14:12:30;8.57;;;5.67;;
8050;SDS011;4068;42.158;24.732;2023-02-07T14:20:45;8.00;;;5.03;;
8050;SDS011;4068;42.158;24.732;2023-02-07T14:23:15;9.87;;;5.77;;
8050;SDS011;4068;42.158;24.732;2023-02-07T14:25:43;8.30;;;5.40;;
8050;SDS011;4068;42.158;24.732;2023-02-07T14:33:15;6.33;;;4.60;;
8050;SDS011;4068;42.158;24.732;2023-02-07T14:38:40;7.97;;;4.37;;
8050;SDS011;4068;42.158;24.732;2023-02-07T14:41:26;11.67;;;5.10;;
8050;SDS011;4068;42.158;24.732;2023-02-07T14:43:58;8.77;;;5.77;;
8050;SDS011;4068;42.158;24.732;2023-02-07T14:46:27;12.43;;;5.30;;
8050;SDS011;4068;42.158;24.732;2023-02-07T14:49:03;9.20;;;6.07;;
8050;SDS011;4068;42.158;24.732;2023-02-07T14:51:31;6.87;;;5.20;;
8050;SDS011;4068;42.158;24.732;2023-02-07T14:54:13;6.57;;;5.40;;
8050;SDS011;4068;42.158;24.732;2023-02-07T14:56:59;10.17;;;6.07;;
8050;SDS011;4068;42.158;24.732;2023-02-07T14:59:44;10.43;;;6.30;;
8050;SDS011;4068;42.158;24.732;2023-02-07T15:02:54;11.40;;;6.97;;
8050;SDS011;4068;42.158;24.732;2023-02-07T15:05:17;15.10;;;7.73;;
8050;SDS011;4068;42.158;24.732;2023-02-07T15:07:46;13.70;;;6.40;;
8050;SDS011;4068;42.158;24.732;2023-02-07T15:10:20;12.83;;;6.90;;
8050;SDS011;4068;42.158;24.732;2023-02-07T15:12:46;11.13;;;7.17;;
8050;SDS011;4068;42.158;24.732;2023-02-07T15:15:40;11.70;;;7.13;;
8050;SDS011;4068;42.158;24.732;2023-02-07T15:18:20;14.87;;;7.10;;
8050;SDS011;4068;42.158;24.732;2023-02-07T15:20:51;15.87;;;8.17;;
8050;SDS011;4068;42.158;24.732;2023-02-07T15:23:19;12.53;;;6.77;;
8050;SDS011;4068;42.158;24.732;2023-02-07T15:25:46;15.93;;;7.17;;
8050;SDS011;4068;42.158;24.732;2023-02-07T15:28:20;16.73;;;6.60;;
8050;SDS011;4068;42.158;24.732;2023-02-07T15:30:56;14.03;;;6.67;;
8050;SDS011;4068;42.158;24.732;2023-02-07T15:33:32;15.63;;;6.77;;
8050;SDS011;4068;42.158;24.732;2023-02-07T15:36:26;12.07;;;5.73;;
8050;SDS011;4068;42.158;24.732;2023-02-07T15:38:52;10.00;;;6.20;;
8050;SDS011;4068;42.158;24.732;2023-02-07T15:41:17;9.97;;;6.53;;
8050;SDS011;4068;42.158;24.732;2023-02-07T15:43:54;13.07;;;6.40;;
8050;SDS011;4068;42.158;24.732;2023-02-07T15:46:23;8.03;;;5.87;;
8050;SDS011;4068;42.158;24.732;2023-02-07T15:48:53;12.17;;;6.87;;
8050;SDS011;4068;42.158;24.732;2023-02-07T15:51:21;12.73;;;7.37;;
8050;SDS011;4068;42.158;24.732;2023-02-07T15:53:54;13.83;;;6.50;;
8050;SDS011;4068;42.158;24.732;2023-02-07T15:56:21;15.93;;;7.70;;
8050;SDS011;4068;42.158;24.732;2023-02-07T15:58:47;12.30;;;6.50;;
8050;SDS011;4068;42.158;24.732;2023-02-07T16:01:21;9.93;;;5.83;;
8050;SDS011;4068;42.158;24.732;2023-02-07T16:03:49;8.10;;;5.33;;
8050;SDS011;4068;42.158;24.732;2023-02-07T16:06:22;16.03;;;7.57;;
8050;SDS011;4068;42.158;24.732;2023-02-07T16:08:50;11.53;;;7.10;;
8050;SDS011;4068;42.158;24.732;2023-02-07T16:21:31;13.53;;;6.87;;
8050;SDS011;4068;42.158;24.732;2023-02-07T16:24:03;11.70;;;6.47;;
8050;SDS011;4068;42.158;24.732;2023-02-07T16:26:32;15.33;;;6.83;;
8050;SDS011;4068;42.158;24.732;2023-02-07T16:29:00;13.77;;;7.27;;
8050;SDS011;4068;42.158;24.732;2023-02-07T16:31:28;18.40;;;8.50;;
8050;SDS011;4068;42.158;24.732;2023-02-07T16:33:54;12.33;;;7.33;;
8050;SDS011;4068;42.158;24.732;2023-02-07T16:36:20;23.27;;;8.37;;
8050;SDS011;4068;42.158;24.732;2023-02-07T16:38:45;21.53;;;8.17;;
8050;SDS011;4068;42.158;24.732;2023-02-07T16:41:18;13.80;;;7.80;;
8050;SDS011;4068;42.158;24.732;2023-02-07T16:43:48;15.37;;;7.70;;
8050;SDS011;4068;42.158;24.732;2023-02-07T16:46:14;21.47;;;9.13;;
8050;SDS011;4068;42.158;24.732;2023-02-07T16:48:39;19.27;;;8.77;;
8050;SDS011;4068;42.158;24.732;2023-02-07T16:51:05;19.93;;;8.57;;
8050;SDS011;4068;42.158;24.732;2023-02-07T16:53:30;18.47;;;9.03;;
8050;SDS011;4068;42.158;24.732;2023-02-07T16:55:56;20.53;;;9.83;;
8050;SDS011;4068;42.158;24.732;2023-02-07T16:58:24;12.80;;;7.30;;
8050;SDS011;4068;42.158;24.732;2023-02-07T17:00:52;13.73;;;7.33;;
8050;SDS011;4068;42.158;24.732;2023-02-07T17:03:18;13.27;;;7.10;;
8050;SDS011;4068;42.158;24.732;2023-02-07T17:05:44;12.27;;;7.03;;
8050;SDS011;4068;42.158;24.732;2023-02-07T17:08:19;11.87;;;6.97;;
8050;SDS011;4068;42.158;24.732;2023-02-07T17:11:00;11.00;;;5.77;;
8050;SDS011;4068;42.158;24.732;2023-02-07T17:13:27;11.67;;;6.80;;
8050;SDS011;4068;42.158;24.732;2023-02-07T17:15:53;10.73;;;6.50;;
8050;SDS011;4068;42.158;24.732;2023-02-07T17:18:18;8.00;;;5.57;;
8050;SDS011;4068;42.158;24.732;2023-02-07T17:20:47;12.73;;;5.77;;
8050;SDS011;4068;42.158;24.732;2023-02-07T17:23:12;10.50;;;6.13;;
8050;SDS011;4068;42.158;24.732;2023-02-07T17:25:38;10.37;;;6.43;;
8050;SDS011;4068;42.158;24.732;2023-02-07T17:28:03;10.53;;;6.47;;
8050;SDS011;4068;42.158;24.732;2023-02-07T17:30:32;14.17;;;6.70;;
8050;SDS011;4068;42.158;24.732;2023-02-07T17:33:02;11.57;;;6.13;;
8050;SDS011;4068;42.158;24.732;2023-02-07T17:35:31;14.90;;;6.60;;
8050;SDS011;4068;42.158;24.732;2023-02-07T17:37:57;24.83;;;8.87;;
8050;SDS011;4068;42.158;24.732;2023-02-07T17:40:26;20.60;;;8.27;;
8050;SDS011;4068;42.158;24.732;2023-02-07T17:42:58;14.50;;;8.10;;
8050;SDS011;4068;42.158;24.732;2023-02-07T17:45:24;13.17;;;7.20;;
8050;SDS011;4068;42.158;24.732;2023-02-07T17:47:51;15.73;;;6.90;;